|
公历农历对照

机场天气预报 (TAF)

机场天气预报 (TAF) 载述关于某个机场在预测期内预料会出现的气象要素。

香港天文台在 18 年 04 月 24 日 01 时 00 分最新发出的香港国际机场天气预报

TAF VHHH 231700Z 2318/2424 VRB05KT 7000 FEW020 SCT035 TX26/2406Z TN24/2323Z TN22/2423Z TEMPO 2321/2324 35010KT 4000 SHRA FEW010CB SCT020 TEMPO 2400/2406 33010KT 2500 -TSRA SHRA FEW008CB SCT015 BECMG 2406/2408 01010KT TEMPO 2406/2409 4000 SHRA FEW010CB SCT020 TEMPO 2408/2415 VRB05KT=

(下次更新时间:18年04月24日07时00分)

机场天气预报电码经解码后:-

香港天文台发出 2018 年 04 月 23 日 18 协调世界时 至 2018 年 04 月 24 日 24 协调世界时 的机场天气预报:
 

时间(协调世界时) 能见度 天气状况 云层 云层高度
2018 年 04 月 23 日 18 时 至 2018 年 04 月 24 日 06 时 5 海里/小时 (风向不定) 7 公里 无重要天气状况
1-2
3-4
2000 呎
3500 呎
2018 年 04 月 23 日 21 时 至 24 时 期间间中 北风 (350 o) 10 海里/小时 4000 米 骤雨
1-2 积雨云
3-4
1000 呎
2000 呎
2018 年 04 月 24 日 00 时 至 06 时 期间间中 西北偏北风 (330 o) 10 海里/小时 2500 米 雷暴及微雨, 骤雨
1-2 积雨云
3-4
800 呎
1500 呎
2018 年 04 月 24 日 06 时 至 08 时 期间逐渐转变为 北风 (010 o) 10 海里/小时 7 公里 无重要天气状况
1-2
3-4
2000 呎
3500 呎
2018 年 04 月 24 日 06 时 至 09 时 期间间中 北风 (010 o) 10 海里/小时 4000 米 骤雨
1-2 积雨云
3-4
1000 呎
2000 呎
2018 年 04 月 24 日 08 时 至 15 时 期间间中 5 海里/小时 (风向不定) 7 公里 无重要天气状况
1-2
3-4
2000 呎
3500 呎

时间(协调世界时) 气温
2018 年 04 月 24 日 06 时
最高26 oC
2018 年 04 月 23 日 23 时
最低24 oC
2018 年 04 月 24 日 23 时
最低22 oC

份: 云层是以估计天空被云遮蔽之总面积来评定。把天空分为八份,1 份即是八份之一的天空被云遮蔽,2 份即是八份之二的天空被云遮蔽,如此类推。
  0 份 = 天朗气清,1-2 份 = 稀薄云层,3-4 份 = 零散云层,5-7 份 = 疏松云层,8 份 = 天色阴暗。
若想进一步了解机场天气预报(TAF)的编码,请参看剖析TAF电码的意义
若想进一步了解云,请参看香港常见的云
 
香港国际机场航空天气报告资料 本港地区航空天气预报
 
版权及声明